createdAt,value
2023-01-29T00:00:11.685Z,0.15
2023-01-29T00:01:11.715Z,0.12
2023-01-29T00:02:11.731Z,0.12
2023-01-29T00:03:11.756Z,0.12
2023-01-29T00:04:11.623Z,0.12
2023-01-29T00:05:26.419Z,0.12
2023-01-29T00:06:12.601Z,0.12
2023-01-29T00:07:11.617Z,0.13
2023-01-29T00:08:11.585Z,0.13
2023-01-29T00:09:11.570Z,0.12
2023-01-29T00:10:11.556Z,0.12
2023-01-29T00:11:11.542Z,0.10
2023-01-29T00:12:11.531Z,0.12
2023-01-29T00:13:11.575Z,0.10
2023-01-29T00:14:11.544Z,0.10
2023-01-29T00:15:11.507Z,0.10
2023-01-29T00:16:11.476Z,0.13
2023-01-29T00:17:11.537Z,0.12
2023-01-29T00:18:11.480Z,0.13
2023-01-29T00:19:11.465Z,0.13
2023-01-29T00:20:11.431Z,0.15
2023-01-29T00:21:11.436Z,0.16
2023-01-29T00:22:11.439Z,0.16
2023-01-29T00:23:11.434Z,0.16
2023-01-29T00:24:11.553Z,0.19
2023-01-29T00:25:11.408Z,0.19
2023-01-29T00:26:11.357Z,0.19
2023-01-29T00:27:11.366Z,0.19
2023-01-29T00:28:11.355Z,0.22
2023-01-29T00:29:11.332Z,0.22
2023-01-29T00:30:11.307Z,0.23
2023-01-29T00:31:11.487Z,0.22
2023-01-29T00:32:11.592Z,0.22
2023-01-29T00:33:11.315Z,0.22
2023-01-29T00:34:11.242Z,0.23
2023-01-29T00:35:11.246Z,0.22
2023-01-29T00:36:11.251Z,0.23
2023-01-29T00:37:11.248Z,0.23
2023-01-29T00:38:11.208Z,0.28
2023-01-29T00:39:11.271Z,0.28
2023-01-29T00:40:11.179Z,0.30
2023-01-29T00:41:11.189Z,0.28
2023-01-29T00:42:11.169Z,0.33
2023-01-29T00:43:11.145Z,0.31
2023-01-29T00:44:11.162Z,0.30
2023-01-29T00:45:11.155Z,0.33
2023-01-29T00:46:11.149Z,0.31
2023-01-29T00:47:11.138Z,0.31
2023-01-29T00:48:11.098Z,0.31
2023-01-29T00:49:11.097Z,0.30
2023-01-29T00:50:11.053Z,0.30
2023-01-29T00:51:11.050Z,0.31
2023-01-29T00:52:11.073Z,0.31
2023-01-29T00:53:11.027Z,0.31
2023-01-29T00:54:11.002Z,0.31
2023-01-29T00:55:11.026Z,0.33
2023-01-29T00:56:11.171Z,0.34
2023-01-29T00:57:10.994Z,0.34
2023-01-29T00:58:10.953Z,0.34
2023-01-29T00:59:10.967Z,0.34
2023-01-29T01:00:10.910Z,0.34
2023-01-29T01:01:11.664Z,0.34
2023-01-29T01:02:10.958Z,0.35
2023-01-29T01:03:10.925Z,0.35
2023-01-29T01:04:10.907Z,0.35
2023-01-29T01:05:10.865Z,0.35
2023-01-29T01:06:10.849Z,0.35
2023-01-29T01:07:45.675Z,0.37
2023-01-29T01:08:45.631Z,0.37
2023-01-29T01:09:45.633Z,0.37
2023-01-29T01:10:45.599Z,0.37
2023-01-29T01:11:45.599Z,0.38
2023-01-29T01:12:45.578Z,0.38
2023-01-29T01:13:45.559Z,0.40
2023-01-29T01:14:45.566Z,0.38
2023-01-29T01:15:45.568Z,0.40
2023-01-29T01:16:45.537Z,0.37
2023-01-29T01:17:45.507Z,0.38
2023-01-29T01:18:45.625Z,0.38
2023-01-29T01:19:45.490Z,0.38
2023-01-29T01:20:45.478Z,0.40
2023-01-29T01:21:45.497Z,0.37
2023-01-29T01:22:45.455Z,0.40
2023-01-29T01:23:45.446Z,0.38
2023-01-29T01:24:45.429Z,0.38
2023-01-29T01:25:45.431Z,0.41
2023-01-29T01:26:45.431Z,0.38
2023-01-29T01:27:45.399Z,0.40
2023-01-29T01:28:52.401Z,0.37
2023-01-29T01:29:45.389Z,0.38
2023-01-29T01:30:45.383Z,0.40
2023-01-29T01:31:45.405Z,0.40
2023-01-29T01:32:45.330Z,0.40
2023-01-29T01:33:45.320Z,0.38
2023-01-29T01:34:45.317Z,0.37
2023-01-29T01:35:45.285Z,0.37
2023-01-29T01:36:45.277Z,0.37
2023-01-29T01:37:45.282Z,0.38
2023-01-29T01:38:45.255Z,0.37
2023-01-29T01:39:45.266Z,0.37
2023-01-29T01:40:45.225Z,0.38
2023-01-29T01:41:45.235Z,0.38
2023-01-29T01:42:45.211Z,0.37
2023-01-29T01:43:45.195Z,0.35
2023-01-29T01:44:45.177Z,0.37
2023-01-29T01:45:45.200Z,0.35
2023-01-29T01:46:45.159Z,0.37
2023-01-29T01:47:45.183Z,0.40
2023-01-29T01:48:45.125Z,0.41
2023-01-29T01:49:45.143Z,0.37
2023-01-29T01:50:45.103Z,0.38
2023-01-29T01:51:45.127Z,0.40
2023-01-29T01:52:45.108Z,0.41
2023-01-29T01:53:45.101Z,0.41
2023-01-29T01:54:45.081Z,0.43
2023-01-29T01:55:45.079Z,0.40
2023-01-29T01:56:45.066Z,0.43
2023-01-29T01:57:45.010Z,0.43
2023-01-29T01:58:44.995Z,0.44
2023-01-29T01:59:44.987Z,0.43
2023-01-29T02:00:44.997Z,0.43
2023-01-29T02:01:44.986Z,0.41
2023-01-29T02:02:44.952Z,0.41
2023-01-29T02:03:44.951Z,0.41
2023-01-29T02:04:44.933Z,0.43
2023-01-29T02:05:44.931Z,0.43
2023-01-29T02:06:44.906Z,0.44
2023-01-29T02:07:44.897Z,0.45
2023-01-29T02:08:44.866Z,0.43
2023-01-29T02:09:44.887Z,0.44
2023-01-29T02:10:44.836Z,0.45
2023-01-29T02:11:44.858Z,0.48
2023-01-29T02:12:44.845Z,0.45
2023-01-29T02:13:44.816Z,0.45
2023-01-29T02:14:44.791Z,0.44
2023-01-29T02:15:44.785Z,0.45
2023-01-29T02:16:44.782Z,0.44
2023-01-29T02:17:44.788Z,0.45
2023-01-29T02:18:44.742Z,0.45
2023-01-29T02:19:44.755Z,0.48
2023-01-29T02:20:44.721Z,0.45
2023-01-29T02:21:44.719Z,0.51
2023-01-29T02:22:44.691Z,0.49
2023-01-29T02:23:44.735Z,0.49
2023-01-29T02:24:44.776Z,0.51
2023-01-29T02:25:44.662Z,0.51
2023-01-29T02:26:44.633Z,0.52
2023-01-29T02:27:44.666Z,0.49
2023-01-29T02:28:44.623Z,0.48
2023-01-29T02:29:44.612Z,0.49
2023-01-29T02:30:44.696Z,0.49
2023-01-29T02:31:44.773Z,0.49
2023-01-29T02:32:44.626Z,0.51
2023-01-29T02:33:44.565Z,0.51
2023-01-29T02:34:44.620Z,0.52
2023-01-29T02:35:44.546Z,0.53
2023-01-29T02:36:44.504Z,0.52
2023-01-29T02:37:44.551Z,0.53
2023-01-29T02:38:44.504Z,0.52
2023-01-29T02:39:44.506Z,0.51
2023-01-29T02:40:44.484Z,0.52
2023-01-29T02:41:44.568Z,0.52
2023-01-29T02:42:44.447Z,0.53
2023-01-29T02:43:44.435Z,0.53
2023-01-29T02:44:44.422Z,0.52
2023-01-29T02:45:44.452Z,0.52
2023-01-29T02:46:44.400Z,0.52
2023-01-29T02:47:44.411Z,0.56
2023-01-29T02:48:44.361Z,0.56
2023-01-29T02:49:44.371Z,0.53
2023-01-29T02:50:44.351Z,0.53
2023-01-29T02:51:44.336Z,0.56
2023-01-29T02:52:44.330Z,0.56
2023-01-29T02:53:44.307Z,0.56
2023-01-29T02:54:44.299Z,0.53
2023-01-29T02:55:44.277Z,0.52
2023-01-29T02:56:44.258Z,0.52
2023-01-29T02:57:44.259Z,0.52
2023-01-29T02:58:44.240Z,0.52
2023-01-29T02:59:44.227Z,0.53
2023-01-29T03:00:44.241Z,0.53
2023-01-29T03:01:44.216Z,0.52
2023-01-29T03:02:44.175Z,0.52
2023-01-29T03:03:44.204Z,0.52
2023-01-29T03:04:44.175Z,0.52
2023-01-29T03:05:44.166Z,0.53
2023-01-29T03:06:44.165Z,0.53
2023-01-29T03:07:44.142Z,0.56
2023-01-29T03:08:44.113Z,0.56
2023-01-29T03:09:44.105Z,0.56
2023-01-29T03:10:44.084Z,0.59
2023-01-29T03:11:44.096Z,0.56
2023-01-29T03:12:44.103Z,0.57
2023-01-29T03:13:44.066Z,0.56
2023-01-29T03:14:44.021Z,0.56
2023-01-29T03:15:44.043Z,0.56
2023-01-29T03:16:44.060Z,0.53
2023-01-29T03:17:44.004Z,0.53
2023-01-29T03:18:43.981Z,0.56
2023-01-29T03:19:43.962Z,0.56
2023-01-29T03:20:43.959Z,0.56
2023-01-29T03:21:43.987Z,0.56
2023-01-29T03:22:43.931Z,0.57
2023-01-29T03:23:43.933Z,0.57
2023-01-29T03:24:43.900Z,0.59
2023-01-29T03:25:43.898Z,0.53
2023-01-29T03:26:43.889Z,0.56
2023-01-29T03:27:43.892Z,0.56
2023-01-29T03:28:43.869Z,0.56
2023-01-29T03:29:43.878Z,0.53
2023-01-29T03:30:43.824Z,0.53
2023-01-29T03:31:43.889Z,0.53
2023-01-29T03:32:43.806Z,0.57
2023-01-29T03:33:43.807Z,0.60
2023-01-29T03:34:43.775Z,0.60
2023-01-29T03:35:43.799Z,0.62
2023-01-29T03:36:43.781Z,0.60
2023-01-29T03:37:43.742Z,0.62
2023-01-29T03:38:43.751Z,0.62
2023-01-29T03:39:43.735Z,0.59
2023-01-29T03:40:43.702Z,0.62
2023-01-29T03:41:43.709Z,0.63
2023-01-29T03:42:43.742Z,0.60
2023-01-29T03:43:43.669Z,0.62
2023-01-29T03:44:43.647Z,0.60
2023-01-29T03:45:43.685Z,0.60
2023-01-29T03:46:43.620Z,0.60
2023-01-29T03:47:43.641Z,0.62
2023-01-29T03:48:43.601Z,0.62
2023-01-29T03:49:43.616Z,0.63
2023-01-29T03:50:43.591Z,0.63
2023-01-29T03:51:43.605Z,0.64
2023-01-29T03:52:43.550Z,0.64
2023-01-29T03:53:43.552Z,0.64
2023-01-29T03:54:43.564Z,0.67
2023-01-29T03:55:43.544Z,0.63
2023-01-29T03:56:43.535Z,0.62
2023-01-29T03:57:43.527Z,0.62
2023-01-29T03:58:43.467Z,0.60
2023-01-29T03:59:43.469Z,0.60
2023-01-29T04:00:43.440Z,0.59
2023-01-29T04:01:43.495Z,0.59
2023-01-29T04:02:43.440Z,0.59
2023-01-29T04:03:43.463Z,0.60
2023-01-29T04:04:43.393Z,0.60
2023-01-29T04:05:43.392Z,0.60
2023-01-29T04:06:43.427Z,0.60
2023-01-29T04:07:43.399Z,0.56
2023-01-29T04:08:43.357Z,0.59
2023-01-29T04:09:43.335Z,0.56
2023-01-29T04:10:43.375Z,0.56
2023-01-29T04:11:43.325Z,0.53
2023-01-29T04:12:43.361Z,0.52
2023-01-29T04:13:43.309Z,0.52
2023-01-29T04:14:43.275Z,0.53
2023-01-29T04:15:43.272Z,0.56
2023-01-29T04:16:43.329Z,0.57
2023-01-29T04:17:43.257Z,0.57
2023-01-29T04:18:43.224Z,0.59
2023-01-29T04:19:43.209Z,0.57
2023-01-29T04:20:43.202Z,0.57
2023-01-29T04:21:43.190Z,0.51
2023-01-29T04:22:43.175Z,0.51
2023-01-29T04:23:43.168Z,0.49
2023-01-29T04:24:43.143Z,0.51
2023-01-29T04:25:43.356Z,0.49
2023-01-29T04:26:43.123Z,0.49
2023-01-29T04:27:43.150Z,0.51
2023-01-29T04:28:43.147Z,0.53
2023-01-29T04:29:43.097Z,0.52
2023-01-29T04:30:43.209Z,0.52
2023-01-29T04:31:43.095Z,0.56
2023-01-29T04:32:43.060Z,0.49
2023-01-29T04:33:43.073Z,0.49
2023-01-29T04:34:43.016Z,0.49
2023-01-29T04:35:43.016Z,0.51
2023-01-29T04:36:42.989Z,0.52
2023-01-29T04:37:43.004Z,0.52
2023-01-29T04:38:43.024Z,0.49
2023-01-29T04:39:42.963Z,0.44
2023-01-29T04:40:42.939Z,0.45
2023-01-29T04:41:42.939Z,0.48
2023-01-29T04:42:42.922Z,0.45
2023-01-29T04:43:42.929Z,0.45
2023-01-29T04:44:42.902Z,0.45
2023-01-29T04:45:42.887Z,0.44
2023-01-29T04:46:42.862Z,0.48
2023-01-29T04:47:42.950Z,0.45
2023-01-29T04:48:42.840Z,0.44
2023-01-29T04:49:42.842Z,0.45
2023-01-29T04:50:42.813Z,0.45
2023-01-29T04:51:42.832Z,0.45
2023-01-29T04:52:42.791Z,0.44
2023-01-29T04:53:42.783Z,0.45
2023-01-29T04:54:42.770Z,0.49
2023-01-29T04:55:42.780Z,0.51
2023-01-29T04:56:42.742Z,0.49
2023-01-29T04:57:42.870Z,0.45
2023-01-29T04:58:42.715Z,0.48
2023-01-29T04:59:42.757Z,0.48
2023-01-29T05:00:42.707Z,0.49
2023-01-29T05:01:42.725Z,0.49
2023-01-29T05:02:42.730Z,0.51
2023-01-29T05:03:42.657Z,0.52
2023-01-29T05:04:42.636Z,0.52
2023-01-29T05:05:42.695Z,0.52
2023-01-29T05:06:42.616Z,0.49
2023-01-29T05:07:42.609Z,0.48
2023-01-29T05:08:42.575Z,0.45
2023-01-29T05:09:42.575Z,0.44
2023-01-29T05:10:42.560Z,0.41
2023-01-29T05:11:42.554Z,0.41
2023-01-29T05:12:42.544Z,0.41
2023-01-29T05:13:42.535Z,0.40
2023-01-29T05:14:42.520Z,0.40
2023-01-29T05:15:42.538Z,0.43
2023-01-29T05:16:42.482Z,0.40
2023-01-29T05:17:42.481Z,0.38
2023-01-29T05:18:42.466Z,0.38
2023-01-29T05:19:42.441Z,0.38
2023-01-29T05:20:42.428Z,0.38
2023-01-29T05:21:42.433Z,0.43
2023-01-29T05:22:42.440Z,0.43
2023-01-29T05:23:42.395Z,0.43
2023-01-29T05:24:42.395Z,0.43
2023-01-29T05:25:42.375Z,0.44
2023-01-29T05:26:42.357Z,0.44
2023-01-29T05:27:42.361Z,0.43
2023-01-29T05:28:42.327Z,0.44
2023-01-29T05:29:42.368Z,0.41
2023-01-29T05:30:42.306Z,0.43
2023-01-29T05:31:42.321Z,0.44
2023-01-29T05:32:42.296Z,0.44
2023-01-29T05:33:42.358Z,0.45
2023-01-29T05:34:42.248Z,0.45
2023-01-29T05:35:42.255Z,0.45
2023-01-29T05:36:42.256Z,0.44
2023-01-29T05:37:42.228Z,0.45
2023-01-29T05:38:42.226Z,0.48
2023-01-29T05:39:42.180Z,0.45
2023-01-29T05:40:42.192Z,0.49
2023-01-29T05:41:42.169Z,0.45
2023-01-29T05:42:42.171Z,0.48
2023-01-29T05:43:42.145Z,0.48
2023-01-29T05:44:42.196Z,0.49
2023-01-29T05:45:42.114Z,0.51
2023-01-29T05:46:42.134Z,0.51
2023-01-29T05:47:42.110Z,0.52
2023-01-29T05:48:42.082Z,0.53
2023-01-29T05:49:42.071Z,0.53
2023-01-29T05:50:42.074Z,0.56
2023-01-29T05:51:42.041Z,0.53
2023-01-29T05:52:42.040Z,0.52
2023-01-29T05:53:42.022Z,0.53
2023-01-29T05:54:42.007Z,0.56
2023-01-29T05:55:41.988Z,0.57
2023-01-29T05:56:41.985Z,0.59
2023-01-29T05:57:41.978Z,0.57
2023-01-29T05:58:41.964Z,0.56
2023-01-29T05:59:41.936Z,0.56
2023-01-29T06:00:41.971Z,0.56
2023-01-29T06:01:41.952Z,0.57
2023-01-29T06:02:42.001Z,0.59
2023-01-29T06:03:41.909Z,0.57
2023-01-29T06:04:41.883Z,0.59
2023-01-29T06:05:41.861Z,0.60
2023-01-29T06:06:41.868Z,0.62
2023-01-29T06:07:43.737Z,0.62
2023-01-29T06:08:41.842Z,0.62
2023-01-29T06:09:41.806Z,0.63
2023-01-29T06:10:41.812Z,0.62
2023-01-29T06:11:41.784Z,0.60
2023-01-29T06:12:41.788Z,0.62
2023-01-29T06:13:41.785Z,0.63
2023-01-29T06:14:41.845Z,0.64
2023-01-29T06:15:41.749Z,0.67
2023-01-29T06:16:41.731Z,0.67
2023-01-29T06:17:41.705Z,0.68
2023-01-29T06:18:41.716Z,0.70
2023-01-29T06:19:41.701Z,0.71
2023-01-29T06:20:41.692Z,0.70
2023-01-29T06:21:41.663Z,0.70
2023-01-29T06:22:41.784Z,0.70
2023-01-29T06:23:41.644Z,0.70
2023-01-29T06:24:41.630Z,0.70
2023-01-29T06:25:41.612Z,0.72
2023-01-29T06:26:41.603Z,0.72
2023-01-29T06:27:41.588Z,0.72
2023-01-29T06:28:41.586Z,0.74
2023-01-29T06:29:41.560Z,0.71
2023-01-29T06:30:41.587Z,0.75
2023-01-29T06:31:41.649Z,0.74
2023-01-29T06:32:41.755Z,0.75
2023-01-29T06:33:41.507Z,0.75
2023-01-29T06:34:41.497Z,0.74
2023-01-29T06:35:41.522Z,0.74
2023-01-29T06:36:41.481Z,0.74
2023-01-29T06:37:41.496Z,0.75
2023-01-29T06:38:41.475Z,0.78
2023-01-29T06:39:41.430Z,0.78
2023-01-29T06:40:41.447Z,0.78
2023-01-29T06:41:41.427Z,0.78
2023-01-29T06:42:41.406Z,0.77
2023-01-29T06:43:41.374Z,0.78
2023-01-29T06:44:41.377Z,0.78
2023-01-29T06:45:41.370Z,0.80
2023-01-29T06:46:41.355Z,0.80
2023-01-29T06:47:41.335Z,0.80
2023-01-29T06:48:41.325Z,0.81
2023-01-29T06:49:41.343Z,0.81
2023-01-29T06:50:41.295Z,0.78
2023-01-29T06:51:41.272Z,0.81
2023-01-29T06:52:41.281Z,0.81
2023-01-29T06:53:42.381Z,0.81
2023-01-29T06:54:41.294Z,0.81
2023-01-29T06:55:41.220Z,0.84
2023-01-29T06:56:41.263Z,0.84
2023-01-29T06:57:41.207Z,0.82
2023-01-29T06:58:41.213Z,0.84
2023-01-29T06:59:41.198Z,0.84
2023-01-29T07:00:41.216Z,0.86
2023-01-29T07:01:41.231Z,0.86
2023-01-29T07:02:41.152Z,0.86
2023-01-29T07:03:41.129Z,0.86
2023-01-29T07:04:41.129Z,0.88
2023-01-29T07:05:41.106Z,0.89
2023-01-29T07:06:41.110Z,0.86
2023-01-29T07:07:41.067Z,0.88
2023-01-29T07:08:41.071Z,0.86
2023-01-29T07:09:41.052Z,0.84
2023-01-29T07:10:41.106Z,0.86
2023-01-29T07:11:41.053Z,0.86
2023-01-29T07:12:41.048Z,0.86
2023-01-29T07:13:41.021Z,0.89
2023-01-29T07:14:41.018Z,0.89
2023-01-29T07:15:40.977Z,0.88
2023-01-29T07:16:41.022Z,0.84
2023-01-29T07:17:40.965Z,0.84
2023-01-29T07:18:40.958Z,0.84
2023-01-29T07:19:40.951Z,0.82
2023-01-29T07:20:40.937Z,0.82
2023-01-29T07:21:40.895Z,0.84
2023-01-29T07:22:40.901Z,0.86
2023-01-29T07:23:40.891Z,0.84
2023-01-29T07:24:40.872Z,0.82
2023-01-29T07:25:40.850Z,0.84
2023-01-29T07:26:40.852Z,0.84
2023-01-29T07:27:41.032Z,0.88
2023-01-29T07:28:40.822Z,0.88
2023-01-29T07:29:40.799Z,0.89
2023-01-29T07:30:40.795Z,0.88
2023-01-29T07:31:40.927Z,0.88
2023-01-29T07:32:40.800Z,0.88
2023-01-29T07:33:40.783Z,0.89
2023-01-29T07:34:40.763Z,0.90
2023-01-29T07:35:40.727Z,0.89
2023-01-29T07:36:40.788Z,0.89
2023-01-29T07:37:40.721Z,0.90
2023-01-29T07:38:40.691Z,0.90
2023-01-29T07:39:40.667Z,0.90
2023-01-29T07:40:40.668Z,0.92
2023-01-29T07:41:40.654Z,0.95
2023-01-29T07:42:40.647Z,0.93
2023-01-29T07:43:40.708Z,0.92
2023-01-29T07:44:40.610Z,0.93
2023-01-29T07:45:40.631Z,0.90
2023-01-29T07:46:40.710Z,0.90
2023-01-29T07:47:40.574Z,0.90
2023-01-29T07:48:40.587Z,0.90
2023-01-29T07:49:40.541Z,0.92
2023-01-29T07:50:40.543Z,0.90
2023-01-29T07:51:40.510Z,0.92
2023-01-29T07:52:40.517Z,0.95
2023-01-29T07:53:40.497Z,0.96
2023-01-29T07:54:40.481Z,0.95
2023-01-29T07:55:40.468Z,0.93
2023-01-29T07:56:40.457Z,0.95
2023-01-29T07:57:40.439Z,0.95
2023-01-29T07:58:40.480Z,0.95
2023-01-29T07:59:40.413Z,0.96
2023-01-29T08:00:40.414Z,0.98
2023-01-29T08:01:40.388Z,1.00
2023-01-29T08:02:40.400Z,1.02
2023-01-29T08:03:40.388Z,1.04
2023-01-29T08:04:40.358Z,1.02
2023-01-29T08:05:40.378Z,1.06
2023-01-29T08:06:40.327Z,1.04
2023-01-29T08:07:40.324Z,1.04
2023-01-29T08:08:40.337Z,1.07
2023-01-29T08:09:40.286Z,1.08
2023-01-29T08:10:40.305Z,1.08
2023-01-29T08:11:40.265Z,1.06
2023-01-29T08:12:40.256Z,1.07
2023-01-29T08:13:40.308Z,1.08
2023-01-29T08:14:40.245Z,1.08
2023-01-29T08:15:40.209Z,1.07
2023-01-29T08:16:40.265Z,1.07
2023-01-29T08:17:56.129Z,1.07
2023-01-29T08:18:41.226Z,1.07
2023-01-29T08:19:40.173Z,1.02
2023-01-29T08:20:40.153Z,1.04
2023-01-29T08:21:40.122Z,1.06
2023-01-29T08:22:40.122Z,1.08
2023-01-29T08:23:40.116Z,1.08
2023-01-29T08:24:53.430Z,1.10
2023-01-29T08:25:41.418Z,1.08
2023-01-29T08:26:40.115Z,1.08
2023-01-29T08:27:40.069Z,1.08
2023-01-29T08:28:40.067Z,1.11
2023-01-29T08:29:40.048Z,1.14
2023-01-29T08:30:40.069Z,1.13
2023-01-29T08:31:40.173Z,1.13
2023-01-29T08:32:40.000Z,1.13
2023-01-29T08:33:40.044Z,1.13
2023-01-29T08:34:39.995Z,1.14
2023-01-29T08:35:39.979Z,1.14
2023-01-29T08:36:39.964Z,1.17
2023-01-29T08:37:39.978Z,1.18
2023-01-29T08:38:39.925Z,1.21
2023-01-29T08:40:39.906Z,1.28
2023-01-29T08:41:40.007Z,1.29
2023-01-29T08:42:39.892Z,1.36
2023-01-29T08:43:39.890Z,1.42
2023-01-29T08:44:39.894Z,1.52
2023-01-29T08:45:40.048Z,1.63
2023-01-29T08:46:39.845Z,1.75
2023-01-29T08:47:40.039Z,1.86
2023-01-29T08:48:39.816Z,1.75
2023-01-29T08:49:39.793Z,1.65
2023-01-29T08:50:39.776Z,1.65
2023-01-29T08:51:39.749Z,1.61
2023-01-29T08:52:39.755Z,1.68
2023-01-29T08:53:39.746Z,1.67
2023-01-29T08:54:40.001Z,1.63
2023-01-29T08:55:39.713Z,1.61
2023-01-29T08:56:39.723Z,1.67
2023-01-29T08:57:39.697Z,1.90
2023-01-29T08:58:39.724Z,1.93
2023-01-29T08:59:39.668Z,1.93
2023-01-29T09:00:39.698Z,2.02
2023-01-29T09:01:39.663Z,2.09
2023-01-29T09:02:39.741Z,2.02
2023-01-29T09:03:39.607Z,2.00
2023-01-29T09:04:39.647Z,1.92
2023-01-29T09:05:39.620Z,1.92
2023-01-29T09:06:39.576Z,1.83
2023-01-29T09:07:39.568Z,1.85
2023-01-29T09:08:39.588Z,1.83
2023-01-29T09:09:39.559Z,1.72
2023-01-29T09:10:39.520Z,1.68
2023-01-29T09:11:39.499Z,1.70
2023-01-29T09:12:39.502Z,1.70
2023-01-29T09:13:39.516Z,1.67
2023-01-29T09:14:39.485Z,1.63
2023-01-29T09:15:39.466Z,1.63
2023-01-29T09:16:39.489Z,1.60
2023-01-29T09:17:39.447Z,1.61
2023-01-29T09:18:39.432Z,1.61
2023-01-29T09:19:40.262Z,1.63
2023-01-29T09:20:39.402Z,1.63
2023-01-29T09:21:39.394Z,1.64
2023-01-29T09:22:39.402Z,1.67
2023-01-29T09:23:39.377Z,1.70
2023-01-29T09:24:39.421Z,1.74
2023-01-29T09:25:39.458Z,1.72
2023-01-29T09:26:39.362Z,1.74
2023-01-29T09:27:39.342Z,1.75
2023-01-29T09:28:39.302Z,1.75
2023-01-29T09:29:39.280Z,1.79
2023-01-29T09:30:39.391Z,1.81
2023-01-29T09:31:39.386Z,1.79
2023-01-29T09:32:55.108Z,1.75
2023-01-29T09:33:40.231Z,1.77
2023-01-29T09:34:39.229Z,1.81
2023-01-29T09:35:39.205Z,1.82
2023-01-29T09:36:39.200Z,1.81
2023-01-29T09:37:39.269Z,1.82
2023-01-29T09:38:39.188Z,1.83
2023-01-29T09:39:39.193Z,1.86
2023-01-29T09:40:39.165Z,1.86
2023-01-29T09:41:39.141Z,1.88
2023-01-29T09:42:39.120Z,1.88
2023-01-29T09:43:39.123Z,1.89
2023-01-29T09:44:39.107Z,1.93
2023-01-29T09:45:39.080Z,1.95
2023-01-29T09:46:39.101Z,1.95
2023-01-29T09:47:39.090Z,2.02
2023-01-29T09:48:39.055Z,2.02
2023-01-29T09:49:39.017Z,2.04
2023-01-29T09:50:39.126Z,2.04
2023-01-29T09:51:39.009Z,2.05
2023-01-29T09:52:39.002Z,2.08
2023-01-29T09:53:38.983Z,2.11
2023-01-29T09:54:38.967Z,2.11
2023-01-29T09:55:39.144Z,2.12
2023-01-29T09:56:38.933Z,2.18
2023-01-29T09:57:38.972Z,2.20
2023-01-29T09:58:38.955Z,2.25
2023-01-29T09:59:38.934Z,2.27
2023-01-29T10:00:38.904Z,2.29
2023-01-29T10:01:38.936Z,2.30
2023-01-29T10:02:38.895Z,2.36
2023-01-29T10:03:38.873Z,2.37
2023-01-29T10:04:38.871Z,2.40
2023-01-29T10:05:38.866Z,2.44
2023-01-29T10:06:38.838Z,2.44
2023-01-29T10:07:39.830Z,2.50
2023-01-29T10:08:38.836Z,2.51
2023-01-29T10:09:38.792Z,2.50
2023-01-29T10:10:38.780Z,2.44
2023-01-29T10:11:38.762Z,2.43
2023-01-29T10:12:38.734Z,2.40
2023-01-29T10:13:38.741Z,2.36
2023-01-29T10:14:38.731Z,2.37
2023-01-29T10:15:38.723Z,2.40
2023-01-29T10:16:38.727Z,2.41
2023-01-29T10:17:38.739Z,2.41
2023-01-29T10:18:38.674Z,2.40
2023-01-29T10:19:38.668Z,2.43
2023-01-29T10:20:38.655Z,2.43
2023-01-29T10:21:38.646Z,2.45
2023-01-29T10:22:38.626Z,2.45
2023-01-29T10:23:38.634Z,2.41
2023-01-29T10:24:38.690Z,2.44
2023-01-29T10:25:38.626Z,2.47
2023-01-29T10:26:38.893Z,2.51
2023-01-29T10:27:38.582Z,2.55
2023-01-29T10:28:38.554Z,2.59
2023-01-29T10:29:38.555Z,2.62
2023-01-29T10:30:38.570Z,2.63
2023-01-29T10:31:38.729Z,2.69
2023-01-29T10:32:38.517Z,2.68
2023-01-29T10:33:49.492Z,2.73
2023-01-29T10:34:39.496Z,2.76
2023-01-29T10:35:38.573Z,2.80
2023-01-29T10:36:38.434Z,2.83
2023-01-29T10:37:38.472Z,2.80
2023-01-29T10:38:38.471Z,2.83
2023-01-29T10:39:38.402Z,2.80
2023-01-29T10:40:38.419Z,2.79
2023-01-29T10:41:38.404Z,2.83
2023-01-29T10:42:38.408Z,2.80
2023-01-29T10:43:38.367Z,2.81
2023-01-29T10:44:38.355Z,2.83
2023-01-29T10:45:38.336Z,2.84
2023-01-29T10:46:38.318Z,2.92
2023-01-29T10:47:38.360Z,2.98
2023-01-29T10:48:38.277Z,3.01
2023-01-29T10:49:38.287Z,3.01
2023-01-29T10:50:38.294Z,3.02
2023-01-29T10:51:38.297Z,3.07
2023-01-29T10:52:38.233Z,3.15
2023-01-29T10:53:38.218Z,3.16
2023-01-29T10:54:38.288Z,3.20
2023-01-29T10:55:38.175Z,3.22
2023-01-29T10:56:38.186Z,3.23
2023-01-29T10:57:38.169Z,3.23
2023-01-29T10:58:38.158Z,3.25
2023-01-29T10:59:38.168Z,3.31
2023-01-29T11:00:38.127Z,3.35
2023-01-29T11:01:38.223Z,3.42
2023-01-29T11:02:39.175Z,3.49
2023-01-29T11:03:38.168Z,3.50
2023-01-29T11:04:38.164Z,3.46
2023-01-29T11:05:38.112Z,3.44
2023-01-29T11:06:38.070Z,3.42
2023-01-29T11:07:38.077Z,3.42
2023-01-29T11:08:38.051Z,3.44
2023-01-29T11:09:38.108Z,3.41
2023-01-29T11:10:38.103Z,3.39
2023-01-29T11:11:38.037Z,3.39
2023-01-29T11:12:38.067Z,3.39
2023-01-29T11:13:38.029Z,3.45
2023-01-29T11:14:38.008Z,3.45
2023-01-29T11:15:37.998Z,3.53
2023-01-29T11:16:38.027Z,3.68
2023-01-29T11:17:37.948Z,3.75
2023-01-29T11:18:37.946Z,3.88
2023-01-29T11:19:37.920Z,3.78
2023-01-29T11:20:37.936Z,3.72
2023-01-29T11:21:37.898Z,3.60
2023-01-29T11:22:37.933Z,3.57
2023-01-29T11:23:37.883Z,3.56
2023-01-29T11:24:37.826Z,3.57
2023-01-29T11:25:37.817Z,3.53
2023-01-29T11:26:37.828Z,3.54
2023-01-29T11:27:37.829Z,3.59
2023-01-29T11:28:37.784Z,3.63
2023-01-29T11:29:38.263Z,3.60
2023-01-29T11:30:37.791Z,3.62
2023-01-29T11:31:37.781Z,3.60
2023-01-29T11:32:37.727Z,3.64
2023-01-29T11:33:37.715Z,3.68
2023-01-29T11:34:37.702Z,3.68
2023-01-29T11:35:37.726Z,3.70
2023-01-29T11:36:37.745Z,3.72
2023-01-29T11:37:37.695Z,3.71
2023-01-29T11:38:37.645Z,3.68
2023-01-29T11:39:37.635Z,3.63
2023-01-29T11:40:37.625Z,3.62
2023-01-29T11:41:37.632Z,3.62
2023-01-29T11:42:37.597Z,3.57
2023-01-29T11:43:37.603Z,3.52
2023-01-29T11:44:37.585Z,3.50
2023-01-29T11:45:37.575Z,3.53
2023-01-29T11:46:37.544Z,3.56
2023-01-29T11:47:37.555Z,3.56
2023-01-29T11:48:37.534Z,3.54
2023-01-29T11:49:37.532Z,3.57
2023-01-29T11:50:37.502Z,3.53
2023-01-29T11:51:37.500Z,3.54
2023-01-29T11:52:37.540Z,3.59
2023-01-29T11:53:37.484Z,3.64
2023-01-29T11:54:37.439Z,3.77
2023-01-29T11:55:49.735Z,3.86
2023-01-29T11:56:38.475Z,3.90
2023-01-29T11:57:38.059Z,3.90
2023-01-29T11:58:37.415Z,3.89
2023-01-29T11:59:37.429Z,3.88
2023-01-29T12:00:37.372Z,3.95
2023-01-29T12:01:37.380Z,3.93
2023-01-29T12:02:37.364Z,3.92
2023-01-29T12:03:37.421Z,3.89
2023-01-29T12:04:37.347Z,3.90
2023-01-29T12:05:37.553Z,3.96
2023-01-29T12:06:37.295Z,4.04
2023-01-29T12:07:37.332Z,4.04
2023-01-29T12:08:37.279Z,4.11
2023-01-29T12:09:37.292Z,4.08
2023-01-29T12:10:37.307Z,4.07
2023-01-29T12:11:37.570Z,4.08
2023-01-29T12:12:37.225Z,4.11
2023-01-29T12:13:37.281Z,4.13
2023-01-29T12:14:37.244Z,4.10
2023-01-29T12:15:37.269Z,4.10
2023-01-29T12:16:37.275Z,4.02
2023-01-29T12:17:37.223Z,4.06
2023-01-29T12:18:37.167Z,3.96
2023-01-29T12:19:37.207Z,3.98
2023-01-29T12:20:37.154Z,3.96
2023-01-29T12:21:37.232Z,3.98
2023-01-29T12:22:37.123Z,3.95
2023-01-29T12:23:37.113Z,3.96
2023-01-29T12:24:37.126Z,3.99
2023-01-29T12:25:37.081Z,4.00
2023-01-29T12:26:37.098Z,4.00
2023-01-29T12:27:37.152Z,4.06
2023-01-29T12:28:37.118Z,4.07
2023-01-29T12:29:37.063Z,4.07
2023-01-29T12:30:37.079Z,4.06
2023-01-29T12:31:37.056Z,4.06
2023-01-29T12:32:37.047Z,4.04
2023-01-29T12:33:37.014Z,3.99
2023-01-29T12:34:36.982Z,4.00
2023-01-29T12:35:37.031Z,3.99
2023-01-29T12:36:36.942Z,3.96
2023-01-29T12:37:36.926Z,3.96
2023-01-29T12:38:36.919Z,3.98
2023-01-29T12:39:36.917Z,3.98
2023-01-29T12:40:36.932Z,3.93
2023-01-29T12:41:36.888Z,3.92
2023-01-29T12:42:36.858Z,3.90
2023-01-29T12:43:36.891Z,3.92
2023-01-29T12:44:36.841Z,3.92
2023-01-29T12:45:36.846Z,3.95
2023-01-29T12:46:36.845Z,3.96
2023-01-29T12:47:36.797Z,3.95
2023-01-29T12:48:36.801Z,3.95
2023-01-29T12:49:36.917Z,3.92
2023-01-29T12:50:36.764Z,3.88
2023-01-29T12:51:36.743Z,3.81
2023-01-29T12:52:36.938Z,3.82
2023-01-29T12:53:36.733Z,3.81
2023-01-29T12:54:36.739Z,3.81
2023-01-29T12:55:36.746Z,3.81
2023-01-29T12:56:36.686Z,3.74
2023-01-29T12:57:36.692Z,3.74
2023-01-29T12:58:36.680Z,3.72
2023-01-29T12:59:36.704Z,3.71
2023-01-29T13:00:36.719Z,3.70
2023-01-29T13:01:36.698Z,3.72
2023-01-29T13:02:36.638Z,3.74
2023-01-29T13:03:36.768Z,3.72
2023-01-29T13:04:36.590Z,3.75
2023-01-29T13:05:36.696Z,3.75
2023-01-29T13:06:36.552Z,3.78
2023-01-29T13:07:36.565Z,3.77
2023-01-29T13:08:36.534Z,3.75
2023-01-29T13:09:36.528Z,3.74
2023-01-29T13:10:36.543Z,3.72
2023-01-29T13:11:36.543Z,3.72
2023-01-29T13:12:36.508Z,3.74
2023-01-29T13:13:37.602Z,3.74
2023-01-29T13:14:36.458Z,3.72
2023-01-29T13:15:36.489Z,3.74
2023-01-29T13:16:36.459Z,3.72
2023-01-29T13:17:36.451Z,3.74
2023-01-29T13:18:36.409Z,3.75
2023-01-29T13:19:36.397Z,3.78